sensor_id;sensor_type;location;lat;lon;timestamp;P1;durP1;ratioP1;P2;durP2;ratioP2
74894;SDS011;63447;49.446;8.666;2023-02-15T00:01:57;30.20;;;14.75;;
74894;SDS011;63447;49.446;8.666;2023-02-15T00:04:25;34.67;;;13.77;;
74894;SDS011;63447;49.446;8.666;2023-02-15T00:07:11;40.20;;;13.90;;
74894;SDS011;63447;49.446;8.666;2023-02-15T00:09:41;34.30;;;13.52;;
74894;SDS011;63447;49.446;8.666;2023-02-15T00:12:08;39.45;;;15.25;;
74894;SDS011;63447;49.446;8.666;2023-02-15T00:14:34;34.40;;;15.32;;
74894;SDS011;63447;49.446;8.666;2023-02-15T00:17:01;44.10;;;14.33;;
74894;SDS011;63447;49.446;8.666;2023-02-15T00:19:29;40.10;;;13.95;;
74894;SDS011;63447;49.446;8.666;2023-02-15T00:21:57;36.78;;;13.88;;
74894;SDS011;63447;49.446;8.666;2023-02-15T00:24:25;38.40;;;13.90;;
74894;SDS011;63447;49.446;8.666;2023-02-15T00:26:50;36.25;;;14.90;;
74894;SDS011;63447;49.446;8.666;2023-02-15T00:29:16;35.20;;;14.47;;
74894;SDS011;63447;49.446;8.666;2023-02-15T00:31:45;41.65;;;14.98;;
74894;SDS011;63447;49.446;8.666;2023-02-15T00:34:12;34.55;;;14.38;;
74894;SDS011;63447;49.446;8.666;2023-02-15T00:36:40;36.75;;;14.77;;
74894;SDS011;63447;49.446;8.666;2023-02-15T00:39:07;35.63;;;14.85;;
74894;SDS011;63447;49.446;8.666;2023-02-15T00:41:33;34.20;;;15.27;;
74894;SDS011;63447;49.446;8.666;2023-02-15T00:44:01;38.00;;;14.25;;
74894;SDS011;63447;49.446;8.666;2023-02-15T00:46:27;31.40;;;13.80;;
74894;SDS011;63447;49.446;8.666;2023-02-15T00:48:55;37.38;;;14.27;;
74894;SDS011;63447;49.446;8.666;2023-02-15T00:51:20;32.00;;;13.77;;
74894;SDS011;63447;49.446;8.666;2023-02-15T00:53:48;32.28;;;12.75;;
74894;SDS011;63447;49.446;8.666;2023-02-15T00:56:16;31.88;;;14.02;;
74894;SDS011;63447;49.446;8.666;2023-02-15T00:58:44;35.05;;;14.15;;
74894;SDS011;63447;49.446;8.666;2023-02-15T01:01:10;30.77;;;13.25;;
74894;SDS011;63447;49.446;8.666;2023-02-15T01:03:38;32.80;;;15.55;;
74894;SDS011;63447;49.446;8.666;2023-02-15T01:08:30;29.37;;;13.67;;
74894;SDS011;63447;49.446;8.666;2023-02-15T01:10:56;30.17;;;12.80;;
74894;SDS011;63447;49.446;8.666;2023-02-15T01:13:21;30.58;;;13.52;;
74894;SDS011;63447;49.446;8.666;2023-02-15T01:15:54;33.55;;;12.85;;
74894;SDS011;63447;49.446;8.666;2023-02-15T01:18:20;32.45;;;13.57;;
74894;SDS011;63447;49.446;8.666;2023-02-15T01:20:45;30.70;;;13.45;;
74894;SDS011;63447;49.446;8.666;2023-02-15T01:23:12;32.47;;;14.52;;
74894;SDS011;63447;49.446;8.666;2023-02-15T01:25:40;33.20;;;14.00;;
74894;SDS011;63447;49.446;8.666;2023-02-15T01:28:08;34.20;;;14.23;;
74894;SDS011;63447;49.446;8.666;2023-02-15T01:30:33;32.92;;;13.88;;
74894;SDS011;63447;49.446;8.666;2023-02-15T01:32:59;32.00;;;13.43;;
74894;SDS011;63447;49.446;8.666;2023-02-15T01:35:25;28.63;;;12.38;;
74894;SDS011;63447;49.446;8.666;2023-02-15T01:40:17;29.57;;;12.47;;
74894;SDS011;63447;49.446;8.666;2023-02-15T01:42:45;42.50;;;13.88;;
74894;SDS011;63447;49.446;8.666;2023-02-15T01:47:49;30.10;;;12.88;;
74894;SDS011;63447;49.446;8.666;2023-02-15T01:53:17;28.92;;;12.23;;
74894;SDS011;63447;49.446;8.666;2023-02-15T01:55:47;28.65;;;12.07;;
74894;SDS011;63447;49.446;8.666;2023-02-15T01:58:18;28.15;;;11.65;;
74894;SDS011;63447;49.446;8.666;2023-02-15T02:00:46;28.08;;;12.77;;
74894;SDS011;63447;49.446;8.666;2023-02-15T02:03:12;25.75;;;11.48;;
74894;SDS011;63447;49.446;8.666;2023-02-15T02:05:43;24.85;;;12.23;;
74894;SDS011;63447;49.446;8.666;2023-02-15T02:08:10;25.92;;;12.65;;
74894;SDS011;63447;49.446;8.666;2023-02-15T02:10:36;27.17;;;12.85;;
74894;SDS011;63447;49.446;8.666;2023-02-15T02:13:04;26.20;;;11.18;;
74894;SDS011;63447;49.446;8.666;2023-02-15T02:15:44;27.77;;;13.18;;
74894;SDS011;63447;49.446;8.666;2023-02-15T02:18:21;30.13;;;12.77;;
74894;SDS011;63447;49.446;8.666;2023-02-15T02:20:57;26.08;;;11.48;;
74894;SDS011;63447;49.446;8.666;2023-02-15T02:26:18;24.45;;;11.60;;
74894;SDS011;63447;49.446;8.666;2023-02-15T02:29:25;26.80;;;11.27;;
74894;SDS011;63447;49.446;8.666;2023-02-15T02:34:57;28.60;;;11.70;;
74894;SDS011;63447;49.446;8.666;2023-02-15T02:40:19;25.13;;;11.43;;
74894;SDS011;63447;49.446;8.666;2023-02-15T02:46:06;26.73;;;11.25;;
74894;SDS011;63447;49.446;8.666;2023-02-15T02:48:40;26.65;;;12.82;;
74894;SDS011;63447;49.446;8.666;2023-02-15T02:51:06;25.67;;;11.25;;
74894;SDS011;63447;49.446;8.666;2023-02-15T02:53:31;24.58;;;11.50;;
74894;SDS011;63447;49.446;8.666;2023-02-15T02:56:06;25.50;;;11.20;;
74894;SDS011;63447;49.446;8.666;2023-02-15T02:58:55;27.58;;;11.75;;
74894;SDS011;63447;49.446;8.666;2023-02-15T03:01:32;26.30;;;11.55;;
74894;SDS011;63447;49.446;8.666;2023-02-15T03:04:08;24.63;;;11.13;;
74894;SDS011;63447;49.446;8.666;2023-02-15T03:06:41;30.90;;;12.30;;
74894;SDS011;63447;49.446;8.666;2023-02-15T03:09:27;29.67;;;12.63;;
74894;SDS011;63447;49.446;8.666;2023-02-15T03:12:06;28.02;;;13.00;;
74894;SDS011;63447;49.446;8.666;2023-02-15T03:14:38;26.75;;;11.60;;
74894;SDS011;63447;49.446;8.666;2023-02-15T03:17:06;26.90;;;12.23;;
74894;SDS011;63447;49.446;8.666;2023-02-15T03:19:33;26.65;;;12.35;;
74894;SDS011;63447;49.446;8.666;2023-02-15T03:22:12;28.02;;;11.60;;
74894;SDS011;63447;49.446;8.666;2023-02-15T03:24:45;26.52;;;12.55;;
74894;SDS011;63447;49.446;8.666;2023-02-15T03:27:19;26.77;;;11.60;;
74894;SDS011;63447;49.446;8.666;2023-02-15T03:29:48;26.38;;;11.93;;
74894;SDS011;63447;49.446;8.666;2023-02-15T03:32:17;25.38;;;11.73;;
74894;SDS011;63447;49.446;8.666;2023-02-15T03:34:43;27.08;;;11.73;;
74894;SDS011;63447;49.446;8.666;2023-02-15T03:37:10;26.98;;;11.88;;
74894;SDS011;63447;49.446;8.666;2023-02-15T03:39:53;25.75;;;11.75;;
74894;SDS011;63447;49.446;8.666;2023-02-15T03:42:44;24.00;;;12.52;;
74894;SDS011;63447;49.446;8.666;2023-02-15T03:47:47;25.00;;;11.77;;
74894;SDS011;63447;49.446;8.666;2023-02-15T03:50:18;24.02;;;10.70;;
74894;SDS011;63447;49.446;8.666;2023-02-15T03:53:03;23.23;;;10.90;;
74894;SDS011;63447;49.446;8.666;2023-02-15T03:55:33;22.63;;;11.23;;
74894;SDS011;63447;49.446;8.666;2023-02-15T03:58:01;22.02;;;11.15;;
74894;SDS011;63447;49.446;8.666;2023-02-15T04:00:52;24.77;;;10.90;;
74894;SDS011;63447;49.446;8.666;2023-02-15T04:03:45;24.38;;;11.63;;
74894;SDS011;63447;49.446;8.666;2023-02-15T04:06:19;23.77;;;10.60;;
74894;SDS011;63447;49.446;8.666;2023-02-15T04:08:44;30.53;;;11.90;;
74894;SDS011;63447;49.446;8.666;2023-02-15T04:11:30;22.13;;;11.13;;
74894;SDS011;63447;49.446;8.666;2023-02-15T04:13:58;24.02;;;11.63;;
74894;SDS011;63447;49.446;8.666;2023-02-15T04:16:23;24.67;;;11.07;;
74894;SDS011;63447;49.446;8.666;2023-02-15T04:18:53;26.30;;;11.10;;
74894;SDS011;63447;49.446;8.666;2023-02-15T04:21:37;25.40;;;12.10;;
74894;SDS011;63447;49.446;8.666;2023-02-15T04:24:21;27.42;;;11.45;;
74894;SDS011;63447;49.446;8.666;2023-02-15T04:27:07;24.60;;;10.73;;
74894;SDS011;63447;49.446;8.666;2023-02-15T04:29:32;25.08;;;11.20;;
74894;SDS011;63447;49.446;8.666;2023-02-15T04:31:58;24.13;;;10.47;;
74894;SDS011;63447;49.446;8.666;2023-02-15T04:34:28;26.02;;;11.13;;
74894;SDS011;63447;49.446;8.666;2023-02-15T04:36:56;24.63;;;11.02;;
74894;SDS011;63447;49.446;8.666;2023-02-15T04:39:21;23.67;;;10.87;;
74894;SDS011;63447;49.446;8.666;2023-02-15T04:41:47;23.33;;;10.13;;
74894;SDS011;63447;49.446;8.666;2023-02-15T04:44:14;23.60;;;10.40;;
74894;SDS011;63447;49.446;8.666;2023-02-15T04:46:40;23.40;;;11.25;;
74894;SDS011;63447;49.446;8.666;2023-02-15T04:49:05;24.87;;;10.63;;
74894;SDS011;63447;49.446;8.666;2023-02-15T04:51:30;22.10;;;11.20;;
74894;SDS011;63447;49.446;8.666;2023-02-15T04:53:55;20.53;;;10.20;;
74894;SDS011;63447;49.446;8.666;2023-02-15T04:56:23;22.70;;;10.90;;
74894;SDS011;63447;49.446;8.666;2023-02-15T04:58:49;20.63;;;10.32;;
74894;SDS011;63447;49.446;8.666;2023-02-15T05:01:14;23.58;;;11.43;;
74894;SDS011;63447;49.446;8.666;2023-02-15T05:03:42;22.05;;;11.23;;
74894;SDS011;63447;49.446;8.666;2023-02-15T05:06:07;20.20;;;10.20;;
74894;SDS011;63447;49.446;8.666;2023-02-15T05:08:32;22.23;;;10.55;;
74894;SDS011;63447;49.446;8.666;2023-02-15T05:11:00;19.08;;;9.35;;
74894;SDS011;63447;49.446;8.666;2023-02-15T05:13:25;20.47;;;9.00;;
74894;SDS011;63447;49.446;8.666;2023-02-15T05:15:52;20.33;;;9.13;;
74894;SDS011;63447;49.446;8.666;2023-02-15T05:18:20;20.55;;;9.80;;
74894;SDS011;63447;49.446;8.666;2023-02-15T05:20:46;18.35;;;9.18;;
74894;SDS011;63447;49.446;8.666;2023-02-15T05:23:14;19.58;;;9.23;;
74894;SDS011;63447;49.446;8.666;2023-02-15T05:25:40;17.75;;;9.35;;
74894;SDS011;63447;49.446;8.666;2023-02-15T05:28:25;17.95;;;8.60;;
74894;SDS011;63447;49.446;8.666;2023-02-15T05:33:30;19.17;;;9.40;;
74894;SDS011;63447;49.446;8.666;2023-02-15T05:35:56;21.08;;;10.15;;
74894;SDS011;63447;49.446;8.666;2023-02-15T05:38:21;18.55;;;8.73;;
74894;SDS011;63447;49.446;8.666;2023-02-15T05:40:47;22.23;;;10.67;;
74894;SDS011;63447;49.446;8.666;2023-02-15T05:43:17;23.85;;;10.13;;
74894;SDS011;63447;49.446;8.666;2023-02-15T05:45:50;23.67;;;10.25;;
74894;SDS011;63447;49.446;8.666;2023-02-15T05:48:18;19.17;;;9.30;;
74894;SDS011;63447;49.446;8.666;2023-02-15T05:50:44;21.27;;;10.88;;
74894;SDS011;63447;49.446;8.666;2023-02-15T05:53:10;20.20;;;9.80;;
74894;SDS011;63447;49.446;8.666;2023-02-15T05:55:42;20.25;;;9.77;;
74894;SDS011;63447;49.446;8.666;2023-02-15T05:58:10;19.60;;;9.77;;
74894;SDS011;63447;49.446;8.666;2023-02-15T06:00:35;20.88;;;10.20;;
74894;SDS011;63447;49.446;8.666;2023-02-15T06:03:03;19.55;;;8.68;;
74894;SDS011;63447;49.446;8.666;2023-02-15T06:05:28;22.73;;;10.17;;
74894;SDS011;63447;49.446;8.666;2023-02-15T06:07:54;21.20;;;10.50;;
74894;SDS011;63447;49.446;8.666;2023-02-15T06:10:21;19.08;;;9.70;;
74894;SDS011;63447;49.446;8.666;2023-02-15T06:12:46;24.52;;;11.60;;
74894;SDS011;63447;49.446;8.666;2023-02-15T06:15:12;25.70;;;11.67;;
74894;SDS011;63447;49.446;8.666;2023-02-15T06:17:40;25.75;;;10.98;;
74894;SDS011;63447;49.446;8.666;2023-02-15T06:20:10;25.08;;;11.05;;
74894;SDS011;63447;49.446;8.666;2023-02-15T06:22:38;25.35;;;11.63;;
74894;SDS011;63447;49.446;8.666;2023-02-15T06:25:06;25.25;;;11.48;;
74894;SDS011;63447;49.446;8.666;2023-02-15T06:27:34;27.88;;;11.90;;
74894;SDS011;63447;49.446;8.666;2023-02-15T06:30:04;27.65;;;11.90;;
74894;SDS011;63447;49.446;8.666;2023-02-15T06:32:35;24.30;;;10.85;;
74894;SDS011;63447;49.446;8.666;2023-02-15T06:35:01;29.92;;;12.77;;
74894;SDS011;63447;49.446;8.666;2023-02-15T06:37:26;28.98;;;12.13;;
74894;SDS011;63447;49.446;8.666;2023-02-15T06:39:52;25.10;;;10.50;;
74894;SDS011;63447;49.446;8.666;2023-02-15T06:42:21;25.98;;;11.30;;
74894;SDS011;63447;49.446;8.666;2023-02-15T06:44:47;27.77;;;12.05;;
74894;SDS011;63447;49.446;8.666;2023-02-15T06:47:12;25.83;;;11.20;;
74894;SDS011;63447;49.446;8.666;2023-02-15T06:49:40;25.73;;;10.60;;
74894;SDS011;63447;49.446;8.666;2023-02-15T06:52:05;25.97;;;11.03;;
74894;SDS011;63447;49.446;8.666;2023-02-15T06:54:33;25.58;;;11.18;;
74894;SDS011;63447;49.446;8.666;2023-02-15T06:56:58;26.67;;;11.63;;
74894;SDS011;63447;49.446;8.666;2023-02-15T06:59:24;26.10;;;11.23;;
74894;SDS011;63447;49.446;8.666;2023-02-15T07:01:49;25.33;;;11.27;;
74894;SDS011;63447;49.446;8.666;2023-02-15T07:04:17;23.60;;;10.50;;
74894;SDS011;63447;49.446;8.666;2023-02-15T07:06:42;24.27;;;10.85;;
74894;SDS011;63447;49.446;8.666;2023-02-15T07:09:08;26.92;;;12.43;;
74894;SDS011;63447;49.446;8.666;2023-02-15T07:11:35;25.70;;;11.60;;
74894;SDS011;63447;49.446;8.666;2023-02-15T07:14:19;28.85;;;11.98;;
74894;SDS011;63447;49.446;8.666;2023-02-15T07:16:45;25.67;;;10.93;;
74894;SDS011;63447;49.446;8.666;2023-02-15T07:19:10;24.83;;;10.27;;
74894;SDS011;63447;49.446;8.666;2023-02-15T07:21:35;25.58;;;11.40;;
74894;SDS011;63447;49.446;8.666;2023-02-15T07:24:01;22.98;;;11.00;;
74894;SDS011;63447;49.446;8.666;2023-02-15T07:26:32;22.83;;;11.00;;
74894;SDS011;63447;49.446;8.666;2023-02-15T07:29:00;27.83;;;12.00;;
74894;SDS011;63447;49.446;8.666;2023-02-15T07:31:27;28.35;;;11.73;;
74894;SDS011;63447;49.446;8.666;2023-02-15T07:33:56;24.17;;;11.05;;
74894;SDS011;63447;49.446;8.666;2023-02-15T07:36:21;25.27;;;11.43;;
74894;SDS011;63447;49.446;8.666;2023-02-15T07:38:49;29.27;;;12.38;;
74894;SDS011;63447;49.446;8.666;2023-02-15T07:41:15;25.30;;;11.33;;
74894;SDS011;63447;49.446;8.666;2023-02-15T07:43:43;25.10;;;11.88;;
74894;SDS011;63447;49.446;8.666;2023-02-15T07:46:10;25.00;;;11.73;;
74894;SDS011;63447;49.446;8.666;2023-02-15T07:48:38;26.88;;;12.45;;
74894;SDS011;63447;49.446;8.666;2023-02-15T07:51:06;28.80;;;12.27;;
74894;SDS011;63447;49.446;8.666;2023-02-15T07:53:36;25.80;;;11.68;;
74894;SDS011;63447;49.446;8.666;2023-02-15T07:56:03;28.15;;;12.57;;
74894;SDS011;63447;49.446;8.666;2023-02-15T07:58:31;27.63;;;12.55;;
74894;SDS011;63447;49.446;8.666;2023-02-15T08:01:15;26.40;;;11.63;;
74894;SDS011;63447;49.446;8.666;2023-02-15T08:03:40;29.00;;;13.23;;
74894;SDS011;63447;49.446;8.666;2023-02-15T08:06:06;27.70;;;12.65;;
74894;SDS011;63447;49.446;8.666;2023-02-15T08:08:34;27.95;;;11.45;;
74894;SDS011;63447;49.446;8.666;2023-02-15T08:11:04;25.98;;;12.20;;
74894;SDS011;63447;49.446;8.666;2023-02-15T08:13:51;27.88;;;12.75;;
74894;SDS011;63447;49.446;8.666;2023-02-15T08:16:22;28.80;;;12.90;;
74894;SDS011;63447;49.446;8.666;2023-02-15T08:18:55;27.60;;;12.48;;
74894;SDS011;63447;49.446;8.666;2023-02-15T08:21:21;25.80;;;11.95;;
74894;SDS011;63447;49.446;8.666;2023-02-15T08:23:47;30.58;;;12.82;;
74894;SDS011;63447;49.446;8.666;2023-02-15T08:26:15;27.92;;;12.48;;
74894;SDS011;63447;49.446;8.666;2023-02-15T08:28:42;33.75;;;17.10;;
74894;SDS011;63447;49.446;8.666;2023-02-15T08:31:11;44.17;;;18.75;;
74894;SDS011;63447;49.446;8.666;2023-02-15T08:33:38;36.63;;;15.35;;
74894;SDS011;63447;49.446;8.666;2023-02-15T08:36:11;36.35;;;15.25;;
74894;SDS011;63447;49.446;8.666;2023-02-15T08:38:42;42.17;;;17.40;;
74894;SDS011;63447;49.446;8.666;2023-02-15T08:41:18;42.90;;;17.25;;
74894;SDS011;63447;49.446;8.666;2023-02-15T08:43:46;40.95;;;16.40;;
74894;SDS011;63447;49.446;8.666;2023-02-15T08:46:14;44.42;;;17.08;;
74894;SDS011;63447;49.446;8.666;2023-02-15T08:48:43;44.15;;;16.23;;
74894;SDS011;63447;49.446;8.666;2023-02-15T08:51:14;38.72;;;15.45;;
74894;SDS011;63447;49.446;8.666;2023-02-15T08:53:48;41.88;;;17.02;;
74894;SDS011;63447;49.446;8.666;2023-02-15T08:56:18;36.10;;;15.93;;
74894;SDS011;63447;49.446;8.666;2023-02-15T08:58:46;35.30;;;15.15;;
74894;SDS011;63447;49.446;8.666;2023-02-15T09:01:17;37.42;;;15.35;;
74894;SDS011;63447;49.446;8.666;2023-02-15T09:03:50;31.45;;;14.27;;
74894;SDS011;63447;49.446;8.666;2023-02-15T09:06:20;34.05;;;14.82;;
74894;SDS011;63447;49.446;8.666;2023-02-15T09:08:49;36.17;;;15.15;;
74894;SDS011;63447;49.446;8.666;2023-02-15T09:13:51;34.70;;;14.77;;
74894;SDS011;63447;49.446;8.666;2023-02-15T09:16:25;37.60;;;13.98;;
74894;SDS011;63447;49.446;8.666;2023-02-15T09:18:58;36.00;;;15.05;;
74894;SDS011;63447;49.446;8.666;2023-02-15T09:21:25;34.60;;;15.48;;
74894;SDS011;63447;49.446;8.666;2023-02-15T09:23:54;32.63;;;13.93;;
74894;SDS011;63447;49.446;8.666;2023-02-15T09:26:24;33.20;;;14.32;;
74894;SDS011;63447;49.446;8.666;2023-02-15T09:28:52;36.28;;;16.25;;
74894;SDS011;63447;49.446;8.666;2023-02-15T09:31:27;38.88;;;16.15;;
74894;SDS011;63447;49.446;8.666;2023-02-15T09:33:55;34.17;;;14.55;;
74894;SDS011;63447;49.446;8.666;2023-02-15T09:36:25;33.92;;;14.70;;
74894;SDS011;63447;49.446;8.666;2023-02-15T09:39:01;31.15;;;14.25;;
74894;SDS011;63447;49.446;8.666;2023-02-15T09:57:27;28.38;;;13.50;;
74894;SDS011;63447;49.446;8.666;2023-02-15T10:00:02;31.88;;;14.13;;
74894;SDS011;63447;49.446;8.666;2023-02-15T10:02:38;34.40;;;14.48;;
74894;SDS011;63447;49.446;8.666;2023-02-15T10:22:37;32.03;;;14.85;;
74894;SDS011;63447;49.446;8.666;2023-02-15T10:25:15;31.10;;;15.43;;
74894;SDS011;63447;49.446;8.666;2023-02-15T10:27:57;27.35;;;13.52;;
74894;SDS011;63447;49.446;8.666;2023-02-15T10:33:33;35.08;;;15.85;;
74894;SDS011;63447;49.446;8.666;2023-02-15T10:36:05;33.05;;;15.32;;
74894;SDS011;63447;49.446;8.666;2023-02-15T10:44:43;35.00;;;15.80;;
74894;SDS011;63447;49.446;8.666;2023-02-15T10:47:37;34.50;;;17.00;;
74894;SDS011;63447;49.446;8.666;2023-02-15T11:01:18;36.92;;;17.13;;
74894;SDS011;63447;49.446;8.666;2023-02-15T11:06:24;38.67;;;17.67;;
74894;SDS011;63447;49.446;8.666;2023-02-15T11:09:02;36.13;;;15.98;;
74894;SDS011;63447;49.446;8.666;2023-02-15T11:11:37;33.65;;;15.68;;
74894;SDS011;63447;49.446;8.666;2023-02-15T11:14:10;33.58;;;16.33;;
74894;SDS011;63447;49.446;8.666;2023-02-15T11:16:38;36.13;;;16.73;;
74894;SDS011;63447;49.446;8.666;2023-02-15T11:19:14;38.35;;;17.30;;
74894;SDS011;63447;49.446;8.666;2023-02-15T11:21:50;36.97;;;17.55;;
74894;SDS011;63447;49.446;8.666;2023-02-15T11:24:26;37.35;;;17.90;;
74894;SDS011;63447;49.446;8.666;2023-02-15T11:27:15;37.45;;;16.55;;
74894;SDS011;63447;49.446;8.666;2023-02-15T11:32:31;38.45;;;17.33;;
74894;SDS011;63447;49.446;8.666;2023-02-15T11:37:44;37.85;;;18.13;;
74894;SDS011;63447;49.446;8.666;2023-02-15T11:40:15;36.05;;;17.27;;
74894;SDS011;63447;49.446;8.666;2023-02-15T11:42:58;39.88;;;18.52;;
74894;SDS011;63447;49.446;8.666;2023-02-15T11:45:32;35.90;;;17.35;;
74894;SDS011;63447;49.446;8.666;2023-02-15T11:48:08;39.65;;;17.52;;
74894;SDS011;63447;49.446;8.666;2023-02-15T11:50:41;38.25;;;17.73;;
74894;SDS011;63447;49.446;8.666;2023-02-15T11:53:11;38.47;;;17.38;;
74894;SDS011;63447;49.446;8.666;2023-02-15T11:55:40;35.35;;;17.40;;
74894;SDS011;63447;49.446;8.666;2023-02-15T12:00:51;36.47;;;17.75;;
74894;SDS011;63447;49.446;8.666;2023-02-15T12:03:27;39.08;;;18.45;;
74894;SDS011;63447;49.446;8.666;2023-02-15T12:06:04;39.63;;;17.55;;
74894;SDS011;63447;49.446;8.666;2023-02-15T12:08:38;37.35;;;18.75;;
74894;SDS011;63447;49.446;8.666;2023-02-15T12:11:11;37.78;;;18.00;;
74894;SDS011;63447;49.446;8.666;2023-02-15T12:13:57;38.13;;;18.63;;
74894;SDS011;63447;49.446;8.666;2023-02-15T12:16:25;34.72;;;17.58;;
74894;SDS011;63447;49.446;8.666;2023-02-15T12:18:58;35.95;;;17.23;;
74894;SDS011;63447;49.446;8.666;2023-02-15T12:21:31;35.10;;;16.17;;
74894;SDS011;63447;49.446;8.666;2023-02-15T12:24:10;36.13;;;17.55;;
74894;SDS011;63447;49.446;8.666;2023-02-15T12:26:47;34.47;;;16.98;;
74894;SDS011;63447;49.446;8.666;2023-02-15T12:29:35;30.90;;;16.23;;
74894;SDS011;63447;49.446;8.666;2023-02-15T12:32:17;34.10;;;16.98;;
74894;SDS011;63447;49.446;8.666;2023-02-15T12:34:53;31.17;;;15.75;;
74894;SDS011;63447;49.446;8.666;2023-02-15T12:37:25;35.10;;;17.60;;
74894;SDS011;63447;49.446;8.666;2023-02-15T12:39:57;32.08;;;16.88;;
74894;SDS011;63447;49.446;8.666;2023-02-15T12:42:27;31.23;;;16.17;;
74894;SDS011;63447;49.446;8.666;2023-02-15T12:45:47;34.35;;;16.17;;
74894;SDS011;63447;49.446;8.666;2023-02-15T12:48:07;31.30;;;16.05;;
74894;SDS011;63447;49.446;8.666;2023-02-15T12:50:43;30.08;;;15.13;;
74894;SDS011;63447;49.446;8.666;2023-02-15T12:53:17;30.63;;;16.10;;
74894;SDS011;63447;49.446;8.666;2023-02-15T12:56:05;30.52;;;15.93;;
74894;SDS011;63447;49.446;8.666;2023-02-15T12:58:38;26.50;;;14.93;;
74894;SDS011;63447;49.446;8.666;2023-02-15T13:01:15;27.65;;;15.10;;
74894;SDS011;63447;49.446;8.666;2023-02-15T13:03:58;29.38;;;15.80;;
74894;SDS011;63447;49.446;8.666;2023-02-15T13:06:26;26.75;;;14.93;;
74894;SDS011;63447;49.446;8.666;2023-02-15T13:08:58;29.73;;;;;
74894;SDS011;63447;49.446;8.666;2023-02-15T13:11:41;29.88;;;16.30;;
74894;SDS011;63447;49.446;8.666;2023-02-15T13:14:19;28.83;;;15.35;;
74894;SDS011;63447;49.446;8.666;2023-02-15T13:16:56;28.77;;;16.02;;
74894;SDS011;63447;49.446;8.666;2023-02-15T13:19:41;28.67;;;16.00;;
74894;SDS011;63447;49.446;8.666;2023-02-15T13:22:14;28.40;;;15.82;;
74894;SDS011;63447;49.446;8.666;2023-02-15T13:24:57;29.10;;;16.27;;
74894;SDS011;63447;49.446;8.666;2023-02-15T13:27:29;28.70;;;16.90;;
74894;SDS011;63447;49.446;8.666;2023-02-15T13:32:51;26.02;;;15.52;;
74894;SDS011;63447;49.446;8.666;2023-02-15T13:35:23;27.30;;;16.95;;
74894;SDS011;63447;49.446;8.666;2023-02-15T13:40:53;26.27;;;16.40;;
74894;SDS011;63447;49.446;8.666;2023-02-15T13:43:29;26.80;;;17.13;;
74894;SDS011;63447;49.446;8.666;2023-02-15T13:57:08;25.80;;;17.55;;
74894;SDS011;63447;49.446;8.666;2023-02-15T14:02:28;25.02;;;17.70;;
74894;SDS011;63447;49.446;8.666;2023-02-15T14:25:25;24.85;;;16.60;;
74894;SDS011;63447;49.446;8.666;2023-02-15T14:30:20;26.20;;;17.45;;
74894;SDS011;63447;49.446;8.666;2023-02-15T14:35:32;26.42;;;18.60;;
74894;SDS011;63447;49.446;8.666;2023-02-15T14:40:57;28.75;;;17.65;;
74894;SDS011;63447;49.446;8.666;2023-02-15T14:48:45;25.77;;;17.47;;
74894;SDS011;63447;49.446;8.666;2023-02-15T14:56:44;26.08;;;17.88;;
74894;SDS011;63447;49.446;8.666;2023-02-15T15:01:36;25.20;;;18.20;;
74894;SDS011;63447;49.446;8.666;2023-02-15T15:04:07;25.55;;;17.35;;
74894;SDS011;63447;49.446;8.666;2023-02-15T15:10:07;28.23;;;18.42;;
74894;SDS011;63447;49.446;8.666;2023-02-15T15:12:54;23.85;;;16.77;;
74894;SDS011;63447;49.446;8.666;2023-02-15T15:18:08;26.13;;;17.40;;
74894;SDS011;63447;49.446;8.666;2023-02-15T15:20:54;25.88;;;17.48;;
74894;SDS011;63447;49.446;8.666;2023-02-15T15:28:54;26.75;;;17.83;;
74894;SDS011;63447;49.446;8.666;2023-02-15T15:48:00;26.00;;;17.58;;
74894;SDS011;63447;49.446;8.666;2023-02-15T15:50:29;26.45;;;17.23;;
74894;SDS011;63447;49.446;8.666;2023-02-15T15:52:58;27.92;;;17.40;;
74894;SDS011;63447;49.446;8.666;2023-02-15T15:55:26;26.67;;;17.58;;
74894;SDS011;63447;49.446;8.666;2023-02-15T15:58:00;30.60;;;17.90;;
74894;SDS011;63447;49.446;8.666;2023-02-15T16:00:36;35.05;;;20.65;;
74894;SDS011;63447;49.446;8.666;2023-02-15T16:03:13;28.02;;;17.95;;
74894;SDS011;63447;49.446;8.666;2023-02-15T16:05:46;27.67;;;17.52;;
74894;SDS011;63447;49.446;8.666;2023-02-15T16:08:13;30.00;;;17.60;;
74894;SDS011;63447;49.446;8.666;2023-02-15T16:10:52;31.08;;;18.30;;
74894;SDS011;63447;49.446;8.666;2023-02-15T16:13:20;30.80;;;18.25;;
74894;SDS011;63447;49.446;8.666;2023-02-15T16:15:46;31.15;;;17.27;;
74894;SDS011;63447;49.446;8.666;2023-02-15T16:18:17;30.10;;;18.05;;
74894;SDS011;63447;49.446;8.666;2023-02-15T16:20:53;30.23;;;16.88;;
74894;SDS011;63447;49.446;8.666;2023-02-15T16:23:39;30.08;;;17.00;;
74894;SDS011;63447;49.446;8.666;2023-02-15T16:29:12;31.38;;;18.05;;
74894;SDS011;63447;49.446;8.666;2023-02-15T16:31:42;32.58;;;18.33;;
74894;SDS011;63447;49.446;8.666;2023-02-15T16:34:17;33.42;;;17.88;;
74894;SDS011;63447;49.446;8.666;2023-02-15T16:36:42;33.83;;;18.25;;
74894;SDS011;63447;49.446;8.666;2023-02-15T16:39:09;31.88;;;17.73;;
74894;SDS011;63447;49.446;8.666;2023-02-15T16:41:42;30.20;;;17.08;;
74894;SDS011;63447;49.446;8.666;2023-02-15T16:44:18;34.95;;;19.40;;
74894;SDS011;63447;49.446;8.666;2023-02-15T16:46:48;36.38;;;18.60;;
74894;SDS011;63447;49.446;8.666;2023-02-15T16:49:20;38.15;;;19.17;;
74894;SDS011;63447;49.446;8.666;2023-02-15T16:51:55;42.35;;;20.05;;
74894;SDS011;63447;49.446;8.666;2023-02-15T16:54:24;37.70;;;20.00;;
74894;SDS011;63447;49.446;8.666;2023-02-15T16:56:54;41.28;;;20.38;;
74894;SDS011;63447;49.446;8.666;2023-02-15T16:59:41;40.85;;;21.10;;
74894;SDS011;63447;49.446;8.666;2023-02-15T17:02:12;37.55;;;19.98;;
74894;SDS011;63447;49.446;8.666;2023-02-15T17:07:49;38.80;;;20.05;;
74894;SDS011;63447;49.446;8.666;2023-02-15T17:13:02;39.45;;;20.23;;
74894;SDS011;63447;49.446;8.666;2023-02-15T17:15:40;37.63;;;19.35;;
74894;SDS011;63447;49.446;8.666;2023-02-15T17:20:44;38.53;;;19.85;;
74894;SDS011;63447;49.446;8.666;2023-02-15T17:23:57;36.90;;;18.85;;
74894;SDS011;63447;49.446;8.666;2023-02-15T17:26:21;37.78;;;19.00;;
74894;SDS011;63447;49.446;8.666;2023-02-15T17:28:50;40.75;;;20.10;;
74894;SDS011;63447;49.446;8.666;2023-02-15T17:31:24;46.15;;;23.10;;
74894;SDS011;63447;49.446;8.666;2023-02-15T17:33:53;44.90;;;24.10;;
74894;SDS011;63447;49.446;8.666;2023-02-15T17:36:23;42.78;;;23.30;;
74894;SDS011;63447;49.446;8.666;2023-02-15T17:41:22;38.75;;;20.08;;
74894;SDS011;63447;49.446;8.666;2023-02-15T17:43:51;40.78;;;20.35;;
74894;SDS011;63447;49.446;8.666;2023-02-15T17:48:46;46.08;;;20.90;;
74894;SDS011;63447;49.446;8.666;2023-02-15T17:51:13;40.92;;;20.02;;
74894;SDS011;63447;49.446;8.666;2023-02-15T17:53:42;38.60;;;20.13;;
74894;SDS011;63447;49.446;8.666;2023-02-15T17:56:31;39.92;;;20.30;;
74894;SDS011;63447;49.446;8.666;2023-02-15T17:58:59;39.03;;;19.55;;
74894;SDS011;63447;49.446;8.666;2023-02-15T18:01:31;37.67;;;20.10;;
74894;SDS011;63447;49.446;8.666;2023-02-15T18:04:18;39.53;;;20.95;;
74894;SDS011;63447;49.446;8.666;2023-02-15T18:07:03;41.85;;;20.15;;
74894;SDS011;63447;49.446;8.666;2023-02-15T18:09:47;40.67;;;19.23;;